Time;durP1;ratioP1;P1;durP2;ratioP2;P2;SDS_P1;SDS_P2;PMS_P1;PMS_P2;Temp;Humidity;BMP_temperature;BMP_pressure;BME280_temperature;BME280_humidity;BME280_pressure;Samples;Min_cycle;Max_cycle;Signal;HPM_P1;HPM_P2
2022/08/27 00:00:15;;;;;;;2.97;1.35;;;18.80;67.00;;;;;;6239498;23;20337;-68
2022/08/27 00:02:42;;;;;;;2.25;1.00;;;18.70;67.70;;;;;;6240558;23;20098;-69
2022/08/27 00:05:10;;;;;;;2.08;1.08;;;18.60;67.20;;;;;;6240430;23;20070;-69
2022/08/27 00:07:35;;;;;;;2.53;1.30;;;18.60;67.20;;;;;;6241131;23;20337;-68
2022/08/27 00:10:01;;;;;;;3.05;1.20;;;18.60;67.20;;;;;;6240526;23;20002;-69
2022/08/27 00:12:27;;;;;;;3.05;1.15;;;18.60;67.40;;;;;;6240498;23;20575;-70
2022/08/27 00:14:52;;;;;;;2.85;1.20;;;18.60;67.40;;;;;;6241212;23;20000;-69
2022/08/27 00:17:18;;;;;;;2.20;1.40;;;18.50;67.40;;;;;;6240805;23;20003;-69
2022/08/27 00:19:43;;;;;;;3.10;1.00;;;18.50;67.60;;;;;;6240858;23;20001;-69
2022/08/27 00:22:09;;;;;;;2.08;1.20;;;18.50;67.70;;;;;;6238286;23;20011;-69
2022/08/27 00:24:35;;;;;;;3.08;1.40;;;18.40;67.70;;;;;;6238672;23;20000;-71
2022/08/27 00:27:01;;;;;;;2.58;1.27;;;18.40;67.80;;;;;;6240534;23;20105;-70
2022/08/27 00:29:27;;;;;;;2.45;1.27;;;18.30;67.90;;;;;;6240203;23;20225;-69
2022/08/27 00:31:53;;;;;;;3.22;1.40;;;18.30;68.10;;;;;;6238631;23;20000;-67
2022/08/27 00:34:19;;;;;;;1.67;1.20;;;18.30;68.20;;;;;;6240333;23;20000;-70
2022/08/27 00:36:45;;;;;;;2.42;1.50;;;18.30;68.20;;;;;;6240718;23;20001;-67
2022/08/27 00:39:11;;;;;;;2.00;1.20;;;18.30;68.30;;;;;;6240359;23;20421;-67
2022/08/27 00:41:39;;;;;;;2.45;1.40;;;18.30;68.40;;;;;;6241538;23;20007;-70
2022/08/27 00:44:05;;;;;;;1.60;1.10;;;18.30;68.40;;;;;;6239284;23;20004;-70
2022/08/27 00:46:52;;;;;;;2.05;1.17;;;18.30;68.40;;;;;;6239978;23;20330;-70
2022/08/27 00:49:30;;;;;;;3.08;1.50;;;18.30;68.30;;;;;;6239632;23;20421;-69
2022/08/27 00:52:16;;;;;;;1.30;1.15;;;18.30;68.40;;;;;;6240577;23;19997;-69
2022/08/27 00:54:42;;;;;;;2.45;1.20;;;18.30;68.30;;;;;;6239043;23;20007;-66
2022/08/27 00:57:08;;;;;;;2.47;1.30;;;18.30;68.30;;;;;;6242235;23;20083;-68
2022/08/27 00:59:34;;;;;;;2.42;1.10;;;18.40;68.30;;;;;;6242271;23;19996;-69
2022/08/27 01:02:18;;;;;;;2.35;1.35;;;18.30;68.10;;;;;;6243662;23;20023;-69
2022/08/27 01:04:53;;;;;;;2.22;1.30;;;18.40;68.10;;;;;;6243885;22;20051;-69
2022/08/27 01:07:21;;;;;;;3.92;1.45;;;18.40;68.20;;;;;;6243418;23;20086;-67
2022/08/27 01:09:48;;;;;;;2.83;1.30;;;18.40;68.20;;;;;;6243609;23;20004;-67
2022/08/27 01:12:14;;;;;;;2.10;1.10;;;18.30;68.20;;;;;;6243115;23;20000;-68
2022/08/27 01:14:43;;;;;;;2.25;1.50;;;18.40;68.30;;;;;;6243271;23;20000;-69
2022/08/27 01:17:09;;;;;;;2.53;1.17;;;18.30;68.30;;;;;;6241854;23;19996;-68
2022/08/27 01:19:46;;;;;;;3.20;1.58;;;18.40;68.30;;;;;;6243346;23;20015;-68
2022/08/27 01:22:37;;;;;;;2.25;1.30;;;18.30;68.30;;;;;;6243844;23;20008;-67
2022/08/27 01:25:06;;;;;;;1.27;1.08;;;18.40;69.00;;;;;;6243494;22;20004;-67
2022/08/27 01:27:33;;;;;;;2.22;1.40;;;18.40;68.40;;;;;;6243288;23;20042;-68
2022/08/27 01:29:59;;;;;;;3.45;1.30;;;18.40;68.30;;;;;;6243608;23;20001;-68
2022/08/27 01:32:28;;;;;;;1.50;1.00;;;18.40;68.30;;;;;;6243488;23;20000;-68
2022/08/27 01:34:54;;;;;;;2.53;1.50;;;18.50;68.20;;;;;;6243629;23;20341;-68
2022/08/27 01:37:21;;;;;;;3.53;1.27;;;18.50;68.10;;;;;;6243219;23;20368;-68
2022/08/27 01:39:47;;;;;;;2.25;1.23;;;18.50;68.00;;;;;;6243250;23;20310;-67
2022/08/27 01:42:17;;;;;;;2.55;1.30;;;18.50;68.00;;;;;;6243069;23;20003;-67
2022/08/27 01:44:56;;;;;;;1.90;1.20;;;18.50;68.00;;;;;;6243561;23;20001;-69
2022/08/27 01:47:24;;;;;;;2.80;1.35;;;18.50;67.90;;;;;;6243427;23;20004;-67
2022/08/27 01:49:50;;;;;;;1.90;1.30;;;18.50;67.90;;;;;;6243008;23;20333;-69
2022/08/27 01:52:20;;;;;;;1.50;1.20;;;18.60;67.90;;;;;;6243573;23;20003;-68
2022/08/27 01:54:46;;;;;;;4.28;1.63;;;18.60;67.90;;;;;;6241752;23;20003;-68
2022/08/27 01:57:13;;;;;;;2.03;1.10;;;18.50;67.80;;;;;;6243114;23;20341;-68
2022/08/27 01:59:39;;;;;;;2.72;1.45;;;18.50;67.80;;;;;;6243292;23;20478;-69
2022/08/27 02:02:05;;;;;;;3.28;1.27;;;18.50;67.70;;;;;;6242188;23;20071;-69
2022/08/27 02:04:32;;;;;;;2.63;1.30;;;18.50;67.70;;;;;;6242640;23;20091;-69
2022/08/27 02:06:58;;;;;;;2.60;1.30;;;18.50;67.80;;;;;;6241995;23;20004;-69
2022/08/27 02:09:24;;;;;;;2.20;1.30;;;18.50;67.90;;;;;;6242941;23;20050;-69
2022/08/27 02:11:50;;;;;;;3.13;1.70;;;18.40;67.90;;;;;;6243422;23;20425;-69
2022/08/27 02:14:15;;;;;;;2.47;1.35;;;18.40;68.00;;;;;;6243324;23;20003;-69
2022/08/27 02:16:41;;;;;;;1.90;1.15;;;18.40;68.10;;;;;;6242673;23;19996;-68
2022/08/27 02:19:07;;;;;;;2.92;1.50;;;18.30;68.10;;;;;;6243072;23;20079;-69
2022/08/27 02:21:33;;;;;;;1.45;1.20;;;18.30;68.10;;;;;;6242950;23;20000;-68
2022/08/27 02:23:58;;;;;;;3.42;1.63;;;18.30;68.10;;;;;;6243380;23;20046;-67
2022/08/27 02:26:25;;;;;;;2.08;1.23;;;18.30;68.10;;;;;;6242951;23;20072;-70
2022/08/27 02:28:51;;;;;;;2.42;1.40;;;18.20;68.10;;;;;;6242930;23;20004;-68
2022/08/27 02:31:17;;;;;;;1.83;1.30;;;18.20;68.30;;;;;;6243213;23;20003;-68
2022/08/27 02:33:42;;;;;;;2.20;1.20;;;18.20;68.30;;;;;;6243302;23;20000;-70
2022/08/27 02:36:09;;;;;;;2.88;1.50;;;18.10;68.30;;;;;;6242478;23;20012;-69
2022/08/27 02:38:35;;;;;;;4.43;1.50;;;18.10;68.40;;;;;;6241994;23;20141;-68
2022/08/27 02:41:00;;;;;;;4.53;1.40;;;18.10;68.50;;;;;;6240700;23;20000;-67
2022/08/27 02:43:26;;;;;;;2.03;1.23;;;18.00;68.60;;;;;;6242629;23;20043;-67
2022/08/27 02:45:52;;;;;;;3.00;1.60;;;18.00;68.50;;;;;;6242757;23;20496;-68
2022/08/27 02:48:18;;;;;;;1.73;1.23;;;18.00;68.60;;;;;;6242815;23;20043;-67
2022/08/27 02:50:44;;;;;;;1.92;1.50;;;18.00;68.60;;;;;;6242684;23;20421;-65
2022/08/27 02:53:09;;;;;;;1.80;1.30;;;18.00;68.60;;;;;;6242484;23;20011;-65
2022/08/27 02:55:35;;;;;;;1.52;1.20;;;17.90;68.60;;;;;;6242917;23;20003;-67
2022/08/27 02:58:01;;;;;;;2.65;1.30;;;17.90;68.50;;;;;;6242904;23;20004;-68
2022/08/27 03:00:27;;;;;;;3.20;1.40;;;17.90;68.60;;;;;;6241215;23;20004;-67
2022/08/27 03:02:54;;;;;;;2.67;1.30;;;17.90;68.60;;;;;;6240414;23;20031;-67
2022/08/27 03:05:20;;;;;;;1.90;1.30;;;17.90;68.70;;;;;;6241295;23;20030;-68
2022/08/27 03:07:46;;;;;;;3.40;1.48;;;17.90;68.70;;;;;;6239912;23;20514;-67
2022/08/27 03:10:15;;;;;;;2.58;1.60;;;17.80;68.70;;;;;;6241501;23;19996;-67
2022/08/27 03:12:41;;;;;;;2.72;1.50;;;17.80;68.70;;;;;;6242659;23;20337;-68
2022/08/27 03:15:10;;;;;;;1.92;1.40;;;17.80;68.80;;;;;;6240766;23;20000;-69
2022/08/27 03:20:21;;;;;;;3.20;1.35;;;17.70;68.80;;;;;;6242904;23;20018;-69
2022/08/27 03:22:47;;;;;;;2.88;1.48;;;17.80;68.80;;;;;;6242569;23;20000;-69
2022/08/27 03:25:12;;;;;;;2.63;1.80;;;17.70;68.80;;;;;;6242745;23;20004;-68
2022/08/27 03:27:38;;;;;;;2.15;1.55;;;17.70;68.90;;;;;;6244461;23;20012;-70
2022/08/27 03:30:06;;;;;;;2.40;1.50;;;17.70;68.80;;;;;;6250607;23;20026;-67
2022/08/27 03:32:31;;;;;;;2.38;1.42;;;17.70;69.50;;;;;;6245612;23;20011;-67
2022/08/27 03:34:57;;;;;;;3.38;1.80;;;17.70;68.80;;;;;;6244957;23;20000;-69
2022/08/27 03:37:24;;;;;;;2.95;1.50;;;17.70;68.80;;;;;;6243774;23;20028;-67
2022/08/27 03:39:49;;;;;;;2.45;1.38;;;17.70;68.90;;;;;;6243718;23;19996;-68
2022/08/27 03:42:15;;;;;;;3.28;1.60;;;17.70;68.80;;;;;;6254283;23;19996;-68
2022/08/27 03:44:40;;;;;;;5.78;2.00;;;17.70;68.80;;;;;;6250501;23;19996;-69
2022/08/27 03:47:06;;;;;;;2.78;1.40;;;17.70;68.70;;;;;;6241603;23;19997;-69
2022/08/27 03:49:31;;;;;;;3.10;1.50;;;17.70;68.80;;;;;;6242127;23;20008;-70
2022/08/27 03:51:57;;;;;;;2.15;1.40;;;17.70;68.80;;;;;;6242698;23;20055;-68
2022/08/27 03:54:23;;;;;;;2.65;1.50;;;17.70;68.80;;;;;;6242329;23;19996;-69
2022/08/27 03:56:49;;;;;;;2.67;1.70;;;17.70;68.80;;;;;;6241165;23;20552;-69
2022/08/27 03:59:15;;;;;;;2.08;1.45;;;17.70;68.80;;;;;;6242479;23;20000;-68
2022/08/27 04:01:41;;;;;;;3.55;1.60;;;17.70;68.80;;;;;;6241001;23;20138;-68
2022/08/27 04:04:06;;;;;;;2.75;1.50;;;17.70;68.80;;;;;;6240915;23;20004;-69
2022/08/27 04:06:35;;;;;;;2.72;1.40;;;17.70;68.70;;;;;;6239078;23;20326;-68
2022/08/27 04:09:02;;;;;;;3.28;1.70;;;17.80;68.60;;;;;;6239410;23;20008;-69
2022/08/27 04:11:28;;;;;;;2.40;1.58;;;17.80;68.60;;;;;;6241672;23;20007;-69
2022/08/27 04:13:54;;;;;;;2.60;1.60;;;17.80;68.60;;;;;;6242102;23;20000;-68
2022/08/27 04:16:20;;;;;;;3.42;1.60;;;17.80;68.50;;;;;;6242493;23;19996;-67
2022/08/27 04:18:45;;;;;;;3.63;1.60;;;17.80;68.40;;;;;;6257885;23;20008;-68
2022/08/27 04:21:13;;;;;;;2.92;1.70;;;17.80;68.40;;;;;;6247140;23;20007;-69
2022/08/27 04:23:40;;;;;;;2.30;1.52;;;17.80;68.30;;;;;;6247573;23;20083;-69
2022/08/27 04:26:07;;;;;;;2.35;1.50;;;17.80;68.30;;;;;;6250318;23;20015;-70
2022/08/27 04:28:33;;;;;;;2.60;1.58;;;17.90;68.40;;;;;;6246595;23;20008;-69
2022/08/27 04:31:02;;;;;;;2.60;1.60;;;17.90;68.20;;;;;;6242614;23;20216;-69
2022/08/27 04:33:27;;;;;;;3.42;1.70;;;17.90;68.20;;;;;;6242302;22;20000;-69
2022/08/27 04:35:58;;;;;;;4.63;1.85;;;17.90;68.20;;;;;;6241048;23;20334;-69
2022/08/27 04:38:23;;;;;;;3.00;1.70;;;17.80;68.30;;;;;;6241616;23;20007;-68
2022/08/27 04:43:33;;;;;;;2.38;1.60;;;17.80;68.40;;;;;;6240915;23;20023;-68
2022/08/27 04:45:59;;;;;;;2.90;1.77;;;17.80;68.40;;;;;;6242163;23;20003;-68
2022/08/27 04:48:24;;;;;;;2.95;1.80;;;17.80;68.40;;;;;;6242132;23;20418;-69
2022/08/27 04:50:50;;;;;;;4.35;1.45;;;17.80;68.40;;;;;;6242023;23;20405;-69
2022/08/27 04:53:16;;;;;;;3.08;1.60;;;17.70;68.40;;;;;;6242308;23;20092;-68
2022/08/27 04:55:49;;;;;;;3.72;1.48;;;17.70;68.50;;;;;;6241745;23;20134;-68
2022/08/27 04:58:15;;;;;;;3.00;1.65;;;17.70;68.60;;;;;;6240692;23;20000;-68
2022/08/27 05:00:50;;;;;;;3.20;1.67;;;17.60;68.60;;;;;;6241987;23;20004;-67
2022/08/27 05:03:18;;;;;;;2.58;1.50;;;17.60;68.70;;;;;;6242222;23;20039;-64
2022/08/27 05:05:46;;;;;;;3.83;1.70;;;17.50;68.80;;;;;;6241950;23;20079;-67
2022/08/27 05:08:12;;;;;;;2.05;1.58;;;17.50;68.80;;;;;;6240843;23;20015;-68
2022/08/27 05:10:45;;;;;;;2.30;1.50;;;17.50;68.70;;;;;;6241954;23;20000;-66
2022/08/27 05:13:11;;;;;;;4.75;1.90;;;17.50;68.80;;;;;;6240143;23;20019;-68
2022/08/27 05:15:38;;;;;;;3.28;1.63;;;17.50;69.50;;;;;;6241766;23;20354;-69
2022/08/27 05:18:06;;;;;;;3.65;1.95;;;17.50;68.90;;;;;;6240785;23;20112;-69
2022/08/27 05:20:32;;;;;;;2.30;1.42;;;17.50;69.00;;;;;;6239843;22;20062;-70
2022/08/27 05:22:58;;;;;;;2.25;1.52;;;17.50;68.90;;;;;;6239478;23;20173;-69
2022/08/27 05:25:25;;;;;;;3.60;1.80;;;17.50;68.90;;;;;;6238394;23;20004;-70
2022/08/27 05:27:51;;;;;;;2.80;1.75;;;17.50;68.90;;;;;;6241744;23;20310;-70
2022/08/27 05:30:17;;;;;;;3.00;1.60;;;17.50;68.90;;;;;;6241214;23;20433;-67
2022/08/27 05:32:43;;;;;;;3.00;1.67;;;17.60;69.00;;;;;;6241574;23;20032;-67
2022/08/27 05:35:09;;;;;;;3.42;1.55;;;18.50;68.00;;;;;;6240492;23;20035;-67
2022/08/27 05:37:35;;;;;;;4.15;2.00;;;19.50;65.50;;;;;;6238707;23;20000;-67
2022/08/27 05:40:05;;;;;;;2.25;1.75;;;20.50;63.00;;;;;;6241119;23;20022;-68
2022/08/27 05:42:31;;;;;;;3.13;1.70;;;21.40;60.80;;;;;;6242581;23;19996;-68
2022/08/27 05:44:57;;;;;;;3.17;1.75;;;22.20;59.00;;;;;;6243844;23;20066;-68
2022/08/27 05:47:23;;;;;;;3.13;1.83;;;22.50;57.30;;;;;;6242115;23;20428;-69
2022/08/27 05:49:53;;;;;;;2.90;1.65;;;22.00;57.50;;;;;;6241260;23;20078;-68
2022/08/27 05:52:19;;;;;;;3.08;1.60;;;21.30;58.30;;;;;;6242688;23;20000;-69
2022/08/27 05:54:44;;;;;;;2.80;1.70;;;20.80;59.60;;;;;;6241952;23;20083;-69
2022/08/27 05:57:10;;;;;;;3.10;1.70;;;20.30;60.70;;;;;;6243072;23;20032;-68
2022/08/27 06:02:20;;;;;;;3.05;1.83;;;19.70;62.50;;;;;;6243388;23;20015;-69
2022/08/27 06:04:46;;;;;;;3.53;1.70;;;19.30;63.10;;;;;;6243489;23;20345;-69
2022/08/27 06:07:14;;;;;;;3.03;1.50;;;19.20;63.80;;;;;;6240804;23;20004;-68
2022/08/27 06:09:40;;;;;;;3.42;1.77;;;19.90;63.50;;;;;;6241421;23;20004;-69
2022/08/27 06:12:06;;;;;;;3.42;2.00;;;21.40;60.50;;;;;;6242893;23;20018;-68
2022/08/27 06:14:32;;;;;;;4.45;1.77;;;22.90;57.50;;;;;;6243324;23;20548;-68
2022/08/27 06:17:00;;;;;;;2.50;1.50;;;24.10;54.60;;;;;;6242736;23;20000;-69
2022/08/27 06:19:26;;;;;;;4.25;1.63;;;25.10;53.10;;;;;;6242596;23;20028;-67
2022/08/27 06:21:52;;;;;;;2.65;1.60;;;25.90;51.10;;;;;;6242993;23;20004;-67
2022/08/27 06:24:18;;;;;;;3.17;1.40;;;26.60;49.70;;;;;;6241813;23;20026;-67
2022/08/27 06:26:44;;;;;;;4.53;1.50;;;27.30;48.60;;;;;;6241581;23;20012;-68
2022/08/27 06:29:11;;;;;;;2.13;1.20;;;27.90;47.50;;;;;;6241471;23;20157;-67
2022/08/27 06:31:37;;;;;;;2.65;1.42;;;28.30;46.80;;;;;;6241395;23;20420;-68
2022/08/27 06:34:05;;;;;;;2.60;1.70;;;28.70;46.00;;;;;;6241750;23;20010;-68
2022/08/27 06:36:32;;;;;;;3.47;1.42;;;29.10;44.80;;;;;;6242579;23;20028;-68
2022/08/27 06:38:58;;;;;;;2.88;1.30;;;29.60;44.50;;;;;;6241677;23;20062;-68
2022/08/27 06:41:27;;;;;;;2.25;1.40;;;30.10;43.70;;;;;;6242062;23;20678;-68
2022/08/27 06:43:54;;;;;;;2.25;1.40;;;30.40;43.30;;;;;;6241353;23;20000;-68
2022/08/27 06:46:22;;;;;;;3.10;1.40;;;30.50;42.30;;;;;;6241806;23;20004;-66
2022/08/27 06:48:57;;;;;;;2.42;1.42;;;30.90;42.00;;;;;;6241071;23;20008;-68
2022/08/27 06:51:27;;;;;;;3.67;1.40;;;31.20;41.40;;;;;;6241446;23;20310;-68
2022/08/27 06:53:54;;;;;;;2.22;1.33;;;31.40;40.70;;;;;;6242779;23;20023;-67
2022/08/27 06:56:19;;;;;;;2.30;1.10;;;31.40;40.00;;;;;;6242117;23;20004;-67
2022/08/27 06:58:45;;;;;;;2.63;1.20;;;31.60;39.70;;;;;;6241524;23;20046;-66
2022/08/27 07:01:23;;;;;;;1.38;1.10;;;31.80;39.60;;;;;;6239166;23;20031;-66
2022/08/27 07:03:49;;;;;;;1.65;1.00;;;32.10;39.20;;;;;;6238100;23;20008;-68
2022/08/27 07:06:15;;;;;;;2.58;1.00;;;32.40;39.10;;;;;;6241490;23;20000;-67
2022/08/27 07:08:42;;;;;;;1.92;1.02;;;32.60;38.50;;;;;;6238605;23;20014;-67
2022/08/27 07:11:12;;;;;;;2.55;1.10;;;32.50;37.80;;;;;;6242187;23;19996;-68
2022/08/27 07:13:40;;;;;;;3.92;1.20;;;32.10;37.70;;;;;;6241274;23;20061;-69
2022/08/27 07:16:09;;;;;;;2.40;1.08;;;31.70;37.80;;;;;;6241592;23;20003;-67
2022/08/27 07:18:34;;;;;;;1.48;0.90;;;31.70;37.80;;;;;;6242730;23;20037;-67
2022/08/27 07:21:02;;;;;;;2.30;1.00;;;31.90;37.90;;;;;;6242415;23;20004;-68
2022/08/27 07:23:30;;;;;;;1.77;0.90;;;32.00;37.50;;;;;;6243414;23;20083;-69
2022/08/27 07:25:55;;;;;;;0.98;0.85;;;32.10;37.40;;;;;;6242703;23;20000;-70
2022/08/27 07:28:22;;;;;;;3.33;1.00;;;32.10;36.80;;;;;;6242690;23;20015;-68
2022/08/27 07:30:47;;;;;;;1.98;1.10;;;32.00;36.90;;;;;;6242430;23;20023;-68
2022/08/27 07:33:13;;;;;;;1.27;0.85;;;32.00;36.70;;;;;;6239740;23;19996;-69
2022/08/27 07:35:39;;;;;;;1.90;1.10;;;32.00;36.70;;;;;;6242197;23;20000;-68
2022/08/27 07:38:05;;;;;;;1.80;0.98;;;31.30;37.10;;;;;;6241930;23;20011;-67
2022/08/27 07:40:31;;;;;;;2.67;0.93;;;31.30;37.50;;;;;;6240527;23;20007;-67
2022/08/27 07:45:47;;;;;;;2.13;0.90;;;31.50;37.30;;;;;;6242095;23;20078;-67
2022/08/27 07:48:13;;;;;;;;;;;31.90;37.00;;;;;;6242495;23;20004;-67
2022/08/27 07:50:38;;;;;;;1.70;0.85;;;31.70;36.90;;;;;;6241387;22;20378;-68
2022/08/27 07:53:04;;;;;;;1.88;0.90;;;30.80;38.10;;;;;;6241784;23;19996;-68
2022/08/27 07:55:29;;;;;;;3.25;1.10;;;31.10;37.70;;;;;;6241782;23;20001;-67
2022/08/27 07:57:55;;;;;;;2.63;0.95;;;31.20;37.30;;;;;;6242381;23;20332;-67
2022/08/27 08:00:20;;;;;;;1.50;0.82;;;31.70;36.90;;;;;;6242709;23;20000;-69
2022/08/27 08:02:46;;;;;;;1.70;0.80;;;31.60;37.00;;;;;;6242402;23;20007;-68
2022/08/27 08:05:15;;;;;;;2.53;0.98;;;32.10;36.90;;;;;;6241922;23;20038;-68
2022/08/27 08:07:41;;;;;;;1.35;0.90;;;32.10;36.10;;;;;;6242265;22;20026;-68
2022/08/27 08:10:08;;;;;;;3.13;0.85;;;32.20;35.90;;;;;;6242384;23;20008;-69
2022/08/27 08:12:36;;;;;;;1.98;0.93;;;32.30;35.70;;;;;;6242218;23;20440;-67
2022/08/27 08:15:02;;;;;;;1.75;0.75;;;31.90;34.90;;;;;;6241438;23;19996;-67
2022/08/27 08:17:28;;;;;;;2.38;1.15;;;30.80;35.80;;;;;;6241175;23;20004;-67
2022/08/27 08:19:55;;;;;;;1.58;0.70;;;29.50;37.70;;;;;;6242575;23;20463;-67
2022/08/27 08:22:21;;;;;;;1.70;0.80;;;28.10;39.60;;;;;;6241700;23;20000;-68
2022/08/27 08:24:46;;;;;;;1.52;0.80;;;28.90;39.70;;;;;;6241518;23;20310;-66
2022/08/27 08:27:12;;;;;;;2.22;0.90;;;29.60;38.80;;;;;;6241523;23;20509;-67
2022/08/27 08:29:38;;;;;;;2.03;1.00;;;29.20;39.10;;;;;;6241265;23;20008;-66
2022/08/27 08:32:05;;;;;;;2.85;0.90;;;29.70;39.10;;;;;;6242026;23;19996;-68
2022/08/27 08:34:31;;;;;;;1.35;0.50;;;29.50;38.10;;;;;;6241510;23;20015;-68
2022/08/27 08:36:56;;;;;;;1.55;0.80;;;28.30;39.60;;;;;;6239547;23;20357;-68
2022/08/27 08:39:23;;;;;;;2.83;0.77;;;28.80;40.10;;;;;;6241053;23;20000;-67
2022/08/27 08:42:00;;;;;;;1.83;0.80;;;29.60;39.30;;;;;;6241051;23;20340;-68
2022/08/27 08:44:34;;;;;;;2.40;0.90;;;30.00;38.70;;;;;;6240728;22;20058;-66
2022/08/27 08:47:20;;;;;;;1.85;1.02;;;29.60;38.70;;;;;;6241065;23;20008;-68
2022/08/27 08:50:34;;;;;;;2.17;1.00;;;29.40;39.30;;;;;;6239947;23;20005;-67
2022/08/27 08:53:08;;;;;;;1.70;0.90;;;29.20;39.70;;;;;;6221181;23;20004;-65
2022/08/27 08:55:55;;;;;;;2.08;0.80;;;28.60;40.40;;;;;;6241464;23;20456;-67
2022/08/27 08:58:46;;;;;;;2.15;1.00;;;28.10;41.30;;;;;;6240999;23;20090;-68
2022/08/27 09:01:17;;;;;;;1.55;0.70;;;26.80;41.80;;;;;;6241305;23;20438;-68
2022/08/27 09:03:51;;;;;;;3.00;1.03;;;26.30;43.00;;;;;;6240696;23;20007;-68
2022/08/27 09:06:41;;;;;;;2.08;0.90;;;26.20;43.50;;;;;;6241985;23;20560;-67
2022/08/27 09:09:22;;;;;;;2.08;0.73;;;26.00;44.40;;;;;;6241314;22;20008;-67
2022/08/27 09:11:56;;;;;;;0.93;0.70;;;25.70;44.00;;;;;;6241381;23;20015;-68
2022/08/27 09:14:25;;;;;;;2.13;0.88;;;25.60;44.60;;;;;;6241373;23;20000;-67
2022/08/27 09:16:51;;;;;;;1.67;0.82;;;25.30;44.90;;;;;;6242134;23;20065;-67
2022/08/27 09:19:17;;;;;;;2.05;1.02;;;25.10;45.00;;;;;;6243738;23;20445;-67
2022/08/27 09:21:43;;;;;;;1.15;0.80;;;25.00;45.50;;;;;;6243446;23;20004;-67
2022/08/27 09:24:36;;;;;;;1.30;0.80;;;24.90;45.80;;;;;;6243352;23;20032;-68
2022/08/27 09:27:02;;;;;;;1.77;0.80;;;25.00;45.90;;;;;;6243378;23;20012;-67
2022/08/27 09:29:29;;;;;;;0.85;0.65;;;24.90;45.80;;;;;;6243259;23;20004;-66
2022/08/27 09:32:03;;;;;;;1.88;0.98;;;24.90;46.00;;;;;;6243532;23;19996;-68
2022/08/27 09:34:36;;;;;;;3.03;0.85;;;24.80;45.90;;;;;;6243834;23;20007;-68
2022/08/27 09:37:05;;;;;;;2.45;1.00;;;24.60;46.00;;;;;;6243920;23;20432;-68
2022/08/27 09:39:42;;;;;;;2.33;0.90;;;24.50;46.10;;;;;;6243858;23;20051;-67
2022/08/27 09:42:20;;;;;;;3.40;0.90;;;24.50;45.90;;;;;;6243497;23;20091;-68
2022/08/27 09:44:46;;;;;;;3.28;0.88;;;24.60;46.10;;;;;;6243661;23;20004;-66
2022/08/27 09:47:14;;;;;;;3.30;1.00;;;24.60;46.80;;;;;;6243275;23;20626;-68
2022/08/27 09:49:40;;;;;;;3.05;1.00;;;24.50;45.80;;;;;;6243199;23;20045;-68
2022/08/27 09:52:07;;;;;;;1.55;1.00;;;24.30;46.20;;;;;;6243356;23;20483;-68
2022/08/27 09:54:42;;;;;;;2.28;0.95;;;24.20;46.80;;;;;;6243460;23;20004;-67
2022/08/27 09:57:09;;;;;;;2.63;1.02;;;24.20;47.10;;;;;;6243486;23;19996;-68
2022/08/27 09:59:42;;;;;;;1.15;0.70;;;24.10;47.30;;;;;;6243021;23;20039;-67
2022/08/27 10:02:23;;;;;;;3.17;1.23;;;24.10;47.60;;;;;;6243232;23;20002;-68
2022/08/27 10:04:57;;;;;;;2.05;0.90;;;24.10;47.80;;;;;;6243131;23;20000;-66
2022/08/27 10:07:51;;;;;;;2.10;1.10;;;24.10;47.90;;;;;;6243140;23;20361;-67
2022/08/27 10:10:43;;;;;;;2.63;1.08;;;24.00;47.80;;;;;;6242984;23;20008;-68
2022/08/27 10:13:12;;;;;;;;;;;24.00;48.10;;;;;;6196569;23;20084;-68
2022/08/27 10:16:05;;;;;;;3.78;1.10;;;24.00;48.20;;;;;;6243001;22;19908;-67
2022/08/27 10:19:02;;;;;;;2.22;0.90;;;23.90;48.40;;;;;;6243101;23;20026;-68
2022/08/27 10:22:06;;;;;;;2.17;1.08;;;23.80;48.50;;;;;;6243058;23;20003;-67
2022/08/27 10:25:00;;;;;;;2.10;0.93;;;23.90;48.70;;;;;;6242752;23;20429;-67
2022/08/27 10:27:59;;;;;;;2.30;0.93;;;24.00;48.60;;;;;;6241619;23;20012;-68
2022/08/27 10:30:37;;;;;;;2.85;0.93;;;24.20;48.50;;;;;;6212424;22;20008;-68
2022/08/27 10:33:09;;;;;;;2.25;1.00;;;24.20;48.20;;;;;;6242786;23;20007;-67
2022/08/27 10:35:54;;;;;;;2.30;0.90;;;24.10;47.90;;;;;;6242337;23;20341;-69
2022/08/27 10:38:44;;;;;;;1.58;0.65;;;24.10;48.20;;;;;;6242724;23;20494;-67
2022/08/27 10:41:40;;;;;;;2.75;0.90;;;24.10;48.10;;;;;;6242214;23;20004;-67
2022/08/27 10:44:05;;;;;;;3.95;1.10;;;24.20;48.10;;;;;;6242526;23;20039;-67
2022/08/27 10:46:56;;;;;;;2.83;0.90;;;24.30;47.50;;;;;;6241916;23;20341;-68
2022/08/27 10:49:51;;;;;;;1.67;0.90;;;24.40;47.20;;;;;;6242713;23;20341;-67
2022/08/27 10:52:36;;;;;;;2.95;1.10;;;24.60;47.00;;;;;;6242644;23;20000;-67
2022/08/27 10:55:26;;;;;;;1.40;0.80;;;24.80;46.40;;;;;;6242641;23;20070;-68
2022/08/27 10:58:05;;;;;;;3.53;0.90;;;24.80;46.20;;;;;;6240776;23;20424;-67
2022/08/27 11:01:10;;;;;;;1.92;0.80;;;24.80;46.10;;;;;;6241161;23;20000;-68
2022/08/27 11:03:43;;;;;;;1.50;0.90;;;24.80;46.20;;;;;;6238313;23;20008;-67
2022/08/27 11:06:20;;;;;;;1.38;0.88;;;24.80;46.20;;;;;;6242003;23;20008;-68
2022/08/27 11:08:57;;;;;;;1.98;0.85;;;24.70;46.20;;;;;;6242553;23;20723;-68
2022/08/27 11:11:41;;;;;;;2.08;1.08;;;24.70;46.10;;;;;;6242527;23;20003;-68
2022/08/27 11:14:36;;;;;;;2.65;1.10;;;24.60;46.00;;;;;;6242372;23;20329;-68
2022/08/27 11:17:16;;;;;;;3.08;1.10;;;24.50;46.10;;;;;;6240755;23;20314;-68
2022/08/27 11:20:00;;;;;;;1.83;0.70;;;24.40;46.10;;;;;;6242167;23;20004;-68
2022/08/27 11:22:32;;;;;;;3.75;1.10;;;24.40;46.10;;;;;;6242314;23;20030;-67
2022/08/27 11:25:19;;;;;;;2.28;0.95;;;24.40;46.20;;;;;;6241555;23;20031;-69
2022/08/27 11:27:47;;;;;;;2.60;1.20;;;24.40;46.60;;;;;;6241656;23;20118;-68
2022/08/27 11:30:28;;;;;;;3.10;1.00;;;24.30;46.50;;;;;;6241443;23;20007;-67
2022/08/27 11:33:16;;;;;;;2.20;0.90;;;24.20;47.10;;;;;;6241906;23;20085;-67
2022/08/27 11:36:08;;;;;;;2.05;1.05;;;24.60;46.70;;;;;;6241197;23;20037;-68
2022/08/27 11:39:08;;;;;;;1.98;1.05;;;24.80;46.30;;;;;;6241969;23;20003;-66
2022/08/27 11:41:55;;;;;;;2.30;0.95;;;25.00;46.00;;;;;;6191002;23;20059;-67
2022/08/27 11:44:23;;;;;;;2.20;1.00;;;25.00;45.40;;;;;;6242538;23;20186;-68
2022/08/27 11:46:54;;;;;;;2.08;1.10;;;25.10;45.20;;;;;;6242385;23;20314;-68
2022/08/27 11:49:32;;;;;;;4.88;1.10;;;24.90;45.40;;;;;;6241884;23;20015;-66
2022/08/27 11:52:06;;;;;;;3.10;1.10;;;24.90;45.50;;;;;;6242625;23;20003;-68
2022/08/27 11:54:47;;;;;;;2.50;1.10;;;24.80;45.90;;;;;;6238831;23;19996;-68
2022/08/27 11:57:31;;;;;;;2.75;1.20;;;24.70;46.30;;;;;;6241942;23;19996;-68
2022/08/27 12:00:09;;;;;;;3.17;1.10;;;24.60;46.60;;;;;;6242096;22;20012;-66
2022/08/27 12:02:35;;;;;;;3.15;1.40;;;24.50;46.90;;;;;;6241980;22;20019;-66
2022/08/27 12:05:31;;;;;;;2.00;1.08;;;24.50;47.10;;;;;;6241521;23;20340;-66
2022/08/27 12:07:58;;;;;;;2.97;1.15;;;24.50;47.10;;;;;;6241447;23;20015;-67
2022/08/27 12:10:36;;;;;;;3.42;0.85;;;24.50;47.20;;;;;;6241823;23;20001;-67
2022/08/27 12:13:24;;;;;;;4.55;1.30;;;24.50;47.10;;;;;;6241353;23;20000;-67
2022/08/27 12:16:01;;;;;;;1.83;1.00;;;24.40;47.30;;;;;;6241527;23;20004;-67
2022/08/27 12:18:30;;;;;;;2.63;1.20;;;24.60;47.40;;;;;;6241873;23;20033;-66
2022/08/27 12:21:00;;;;;;;1.58;0.90;;;24.50;47.10;;;;;;6241985;23;20001;-66
2022/08/27 12:23:43;;;;;;;2.25;1.10;;;24.50;47.20;;;;;;6241946;23;20329;-66
2022/08/27 12:26:23;;;;;;;1.77;0.70;;;24.60;47.20;;;;;;6241867;23;20016;-67
2022/08/27 12:28:50;;;;;;;2.47;1.02;;;24.80;46.90;;;;;;6242851;23;20004;-68
2022/08/27 12:31:20;;;;;;;2.53;1.00;;;24.80;46.50;;;;;;6242269;23;20067;-68
2022/08/27 12:33:50;;;;;;;2.35;1.20;;;24.80;46.30;;;;;;6242246;23;20368;-67
2022/08/27 12:36:20;;;;;;;1.85;0.93;;;24.60;46.20;;;;;;6242198;23;20381;-67
2022/08/27 12:38:51;;;;;;;1.77;0.90;;;24.60;46.40;;;;;;6241567;23;20011;-67
2022/08/27 12:41:42;;;;;;;1.67;0.88;;;24.70;46.40;;;;;;6242316;23;20012;-68
2022/08/27 12:44:10;;;;;;;1.60;0.80;;;24.70;46.30;;;;;;6241301;23;20643;-68
2022/08/27 12:46:42;;;;;;;3.40;0.90;;;24.80;46.30;;;;;;6241637;23;20058;-68
2022/08/27 12:49:08;;;;;;;2.05;1.00;;;24.90;46.20;;;;;;6241362;23;20012;-67
2022/08/27 12:51:36;;;;;;;1.83;0.88;;;25.00;46.10;;;;;;6244669;23;20000;-67
2022/08/27 12:54:29;;;;;;;2.47;1.02;;;25.00;46.10;;;;;;6244571;23;19999;-67
2022/08/27 12:57:16;;;;;;;2.05;0.93;;;24.90;46.20;;;;;;6245128;23;20000;-66
2022/08/27 13:00:13;;;;;;;2.22;0.90;;;24.80;46.50;;;;;;6245190;23;20081;-68
2022/08/27 13:02:53;;;;;;;1.48;0.80;;;24.80;46.40;;;;;;6244968;23;20579;-67
2022/08/27 13:05:21;;;;;;;4.10;1.00;;;24.80;46.90;;;;;;6244519;23;20004;-69
2022/08/27 13:07:48;;;;;;;1.95;0.90;;;24.90;46.90;;;;;;6245571;23;20027;-66
2022/08/27 13:10:23;;;;;;;1.92;0.98;;;25.00;46.80;;;;;;6246583;23;20003;-68
2022/08/27 13:13:06;;;;;;;2.65;1.02;;;24.90;46.80;;;;;;6244863;23;20039;-67
2022/08/27 13:15:33;;;;;;;2.00;1.05;;;24.90;47.00;;;;;;6244096;23;19996;-66
2022/08/27 13:18:01;;;;;;;2.65;0.90;;;24.90;47.30;;;;;;6245091;23;20004;-68